Time,TemperatureF,DewpointF,PressureIn,WindDirection,WindDirectionDegrees,WindSpeedMPH,WindSpeedGustMPH,Humidity,HourlyPrecipIn,Conditions,Clouds,dailyrainin,SoftwareType,DateUTC
2013-06-11 00:02:00,65.0,59.0,29.88,WNW,298,4.0,4.0,80,0.00,,,0.00,,2013-06-10 22:02:00,
2013-06-11 00:12:00,65.0,59.0,29.88,WNW,298,4.0,4.0,80,0.00,,,0.00,,2013-06-10 22:12:00,
2013-06-11 00:22:00,65.0,59.0,29.88,WNW,298,4.0,4.0,80,0.00,,,0.00,,2013-06-10 22:22:00,
2013-06-11 00:33:00,65.0,59.0,29.87,NW,313,1.0,1.0,81,0.00,,,0.00,,2013-06-10 22:33:00,
2013-06-11 00:42:00,65.0,59.0,29.87,NW,314,2.0,3.0,82,0.00,,,0.00,,2013-06-10 22:42:00,
2013-06-11 00:52:00,65.0,59.0,29.87,NW,314,2.0,3.0,82,0.00,,,0.00,,2013-06-10 22:52:00,
2013-06-11 01:02:00,65.0,60.0,29.87,NW,314,1.0,3.0,83,0.00,,,0.00,,2013-06-10 23:02:00,
2013-06-11 01:11:00,65.0,60.0,29.87,NW,314,1.0,2.0,84,0.00,,,0.00,,2013-06-10 23:11:00,
2013-06-11 01:22:00,65.0,60.0,29.87,NW,314,1.0,2.0,84,0.00,,,0.00,,2013-06-10 23:22:00,
2013-06-11 01:32:00,65.0,60.0,29.87,NW,314,1.0,2.0,84,0.00,,,0.00,,2013-06-10 23:32:00,
2013-06-11 01:42:00,65.0,60.0,29.87,NW,314,1.0,2.0,84,0.00,,,0.00,,2013-06-10 23:42:00,
2013-06-11 01:52:00,65.0,60.0,29.87,NW,314,1.0,2.0,84,0.00,,,0.00,,2013-06-10 23:52:00,
2013-06-11 02:01:00,65.0,60.0,29.87,NW,314,1.0,2.0,84,0.00,,,0.00,,2013-06-11 00:01:00,
2013-06-11 02:13:00,64.0,59.0,29.87,NNW,328,2.0,3.0,84,0.00,,,0.00,,2013-06-11 00:13:00,
2013-06-11 02:22:00,64.0,59.0,29.87,NNW,328,2.0,3.0,84,0.00,,,0.00,,2013-06-11 00:22:00,
2013-06-11 02:32:00,64.0,59.0,29.87,NNW,328,2.0,3.0,84,0.00,,,0.00,,2013-06-11 00:32:00,
2013-06-11 02:43:00,64.0,59.0,29.87,NW,323,2.0,3.0,84,0.00,,,0.00,,2013-06-11 00:43:00,
2013-06-11 02:52:00,64.0,59.0,29.87,NW,323,2.0,3.0,84,0.00,,,0.00,,2013-06-11 00:52:00,
2013-06-11 03:02:00,64.0,59.0,29.86,NW,323,0.0,2.0,84,0.00,,,0.00,,2013-06-11 01:02:00,
2013-06-11 03:12:00,64.0,59.0,29.86,NW,323,1.0,1.0,85,0.00,,,0.00,,2013-06-11 01:12:00,
2013-06-11 03:21:00,64.0,59.0,29.86,NW,323,1.0,1.0,85,0.00,,,0.00,,2013-06-11 01:21:00,
2013-06-11 03:32:00,64.0,59.0,29.86,NW,323,1.0,1.0,85,0.00,,,0.00,,2013-06-11 01:32:00,
2013-06-11 03:42:00,64.0,59.0,29.86,NW,323,0.0,0.0,84,0.00,,,0.00,,2013-06-11 01:42:00,
2013-06-11 03:52:00,64.0,59.0,29.86,NW,323,0.0,0.0,84,0.00,,,0.00,,2013-06-11 01:52:00,
2013-06-11 04:01:00,64.0,59.0,29.86,NW,323,0.0,0.0,84,0.00,,,0.00,,2013-06-11 02:01:00,
2013-06-11 04:12:00,64.0,59.0,29.86,NW,323,1.0,3.0,85,0.00,,,0.00,,2013-06-11 02:12:00,
2013-06-11 04:21:00,64.0,59.0,29.86,NW,323,1.0,3.0,85,0.00,,,0.00,,2013-06-11 02:21:00,
2013-06-11 04:31:00,64.0,59.0,29.86,NW,323,1.0,2.0,85,0.00,,,0.00,,2013-06-11 02:31:00,
2013-06-11 04:43:00,64.0,59.0,29.86,NW,323,0.0,0.0,85,0.00,,,0.00,,2013-06-11 02:43:00,
2013-06-11 04:52:00,64.0,59.0,29.86,NW,323,0.0,0.0,85,0.00,,,0.00,,2013-06-11 02:52:00,
2013-06-11 05:01:00,64.0,59.0,29.86,NW,323,1.0,2.0,85,0.00,,,0.00,,2013-06-11 03:01:00,
2013-06-11 05:12:00,64.0,59.0,29.86,NW,323,0.0,0.0,85,0.00,,,0.00,,2013-06-11 03:12:00,
2013-06-11 05:22:00,64.0,59.0,29.86,NW,323,0.0,0.0,85,0.00,,,0.00,,2013-06-11 03:22:00,
2013-06-11 05:32:00,64.0,59.0,29.86,NW,323,0.0,0.0,85,0.00,,,0.00,,2013-06-11 03:32:00,
2013-06-11 05:42:00,63.0,58.0,29.85,NW,323,0.0,0.0,85,0.00,,,0.00,,2013-06-11 03:42:00,
2013-06-11 05:53:00,63.0,58.0,29.85,NW,323,0.0,0.0,85,0.00,,,0.00,,2013-06-11 03:53:00,
2013-06-11 06:02:00,63.0,59.0,29.85,NW,323,0.0,0.0,86,0.00,,,0.00,,2013-06-11 04:02:00,
2013-06-11 06:12:00,64.0,60.0,29.85,NW,323,0.0,2.0,86,0.00,,,0.00,,2013-06-11 04:12:00,
2013-06-11 06:22:00,64.0,60.0,29.85,NW,323,0.0,2.0,86,0.00,,,0.00,,2013-06-11 04:22:00,
2013-06-11 06:33:00,64.0,60.0,29.85,NW,323,0.0,2.0,86,0.00,,,0.00,,2013-06-11 04:33:00,
2013-06-11 06:42:00,64.0,60.0,29.85,NW,323,0.0,2.0,86,0.00,,,0.00,,2013-06-11 04:42:00,
2013-06-11 06:52:00,64.0,60.0,29.86,NW,323,0.0,0.0,86,0.00,,,0.00,,2013-06-11 04:52:00,
2013-06-11 07:02:00,64.0,60.0,29.86,NW,323,0.0,0.0,87,0.00,,,0.00,,2013-06-11 05:02:00,
2013-06-11 07:12:00,64.0,60.0,29.86,NW,323,0.0,0.0,87,0.00,,,0.00,,2013-06-11 05:12:00,
2013-06-11 07:22:00,65.0,61.0,29.86,NW,323,0.0,0.0,86,0.00,,,0.00,,2013-06-11 05:22:00,
2013-06-11 07:32:00,65.0,61.0,29.86,NW,323,0.0,0.0,86,0.00,,,0.00,,2013-06-11 05:32:00,
2013-06-11 07:42:00,66.0,61.0,29.87,NW,323,0.0,1.0,85,0.00,,,0.00,,2013-06-11 05:42:00,
2013-06-11 07:52:00,66.0,61.0,29.87,NW,323,0.0,1.0,85,0.00,,,0.00,,2013-06-11 05:52:00,
2013-06-11 08:02:00,66.0,61.0,29.87,NW,323,0.0,1.0,85,0.00,,,0.00,,2013-06-11 06:02:00,
2013-06-11 08:12:00,66.0,61.0,29.87,NW,323,0.0,1.0,85,0.00,,,0.00,,2013-06-11 06:12:00,
2013-06-11 08:22:00,66.0,61.0,29.87,WSW,253,5.0,5.0,84,0.00,,,0.00,,2013-06-11 06:22:00,
2013-06-11 08:31:00,66.0,60.0,29.87,WSW,257,3.0,5.0,82,0.00,,,0.00,,2013-06-11 06:31:00,
2013-06-11 08:42:00,67.0,61.0,29.88,WSW,254,0.0,3.0,81,0.00,,,0.00,,2013-06-11 06:42:00,
2013-06-11 08:52:00,67.0,61.0,29.88,WSW,254,0.0,3.0,81,0.00,,,0.00,,2013-06-11 06:52:00,
2013-06-11 09:02:00,67.0,60.0,29.88,WNW,298,2.0,4.0,77,0.00,,,0.00,,2013-06-11 07:02:00,
2013-06-11 09:12:00,68.0,60.0,29.88,West,279,6.0,6.0,76,0.00,,,0.00,,2013-06-11 07:12:00,
2013-06-11 09:21:00,68.0,60.0,29.88,West,279,6.0,6.0,76,0.00,,,0.00,,2013-06-11 07:21:00,
2013-06-11 09:32:00,68.0,60.0,29.88,West,279,6.0,6.0,76,0.00,,,0.00,,2013-06-11 07:32:00,
2013-06-11 09:42:00,68.0,59.0,29.88,West,273,7.0,9.0,72,0.00,,,0.00,,2013-06-11 07:42:00,
2013-06-11 09:52:00,68.0,59.0,29.88,West,273,7.0,9.0,72,0.00,,,0.00,,2013-06-11 07:52:00,
2013-06-11 10:02:00,69.0,60.0,29.88,WNW,301,3.0,3.0,72,0.00,,,0.00,,2013-06-11 08:02:00,
2013-06-11 10:12:00,69.0,60.0,29.88,WNW,301,3.0,3.0,72,0.00,,,0.00,,2013-06-11 08:12:00,
2013-06-11 10:22:00,70.0,59.0,29.88,WNW,296,7.0,10.0,67,0.00,,,0.00,,2013-06-11 08:22:00,
2013-06-11 10:32:00,70.0,59.0,29.88,WNW,296,7.0,10.0,67,0.00,,,0.00,,2013-06-11 08:32:00,
2013-06-11 10:41:00,69.0,56.0,29.88,WNW,296,4.0,6.0,63,0.00,,,0.00,,2013-06-11 08:41:00,
2013-06-11 10:52:00,69.0,56.0,29.88,WNW,296,4.0,6.0,63,0.00,,,0.00,,2013-06-11 08:52:00,
2013-06-11 11:01:00,69.0,56.0,29.88,WNW,296,4.0,6.0,63,0.00,,,0.00,,2013-06-11 09:01:00,
2013-06-11 11:12:00,69.0,56.0,29.88,WNW,296,4.0,6.0,63,0.00,,,0.00,,2013-06-11 09:12:00,
2013-06-11 11:21:00,69.0,56.0,29.88,WNW,296,4.0,6.0,63,0.00,,,0.00,,2013-06-11 09:21:00,
2013-06-11 11:33:00,70.0,59.0,29.90,SW,225,7.0,7.0,69,0.00,,,0.00,,2013-06-11 09:33:00,
2013-06-11 11:43:00,70.0,60.0,29.90,West,259,6.0,8.0,70,0.00,,,0.00,,2013-06-11 09:43:00,
2013-06-11 11:53:00,70.0,60.0,29.90,West,259,6.0,8.0,70,0.00,,,0.00,,2013-06-11 09:53:00,
2013-06-11 12:03:00,70.0,58.0,29.90,WNW,294,4.0,10.0,66,0.00,,,0.00,,2013-06-11 10:03:00,
2013-06-11 12:12:00,70.0,58.0,29.90,WNW,294,4.0,10.0,66,0.00,,,0.00,,2013-06-11 10:12:00,
2013-06-11 12:22:00,70.0,59.0,29.90,WSW,249,9.0,9.0,69,0.00,,,0.00,,2013-06-11 10:22:00,
2013-06-11 12:33:00,70.0,59.0,29.90,WSW,241,5.0,11.0,69,0.00,,,0.00,,2013-06-11 10:33:00,
2013-06-11 12:42:00,70.0,59.0,29.90,WSW,241,5.0,11.0,69,0.00,,,0.00,,2013-06-11 10:42:00,
2013-06-11 12:52:00,70.0,59.0,29.90,WSW,241,5.0,11.0,69,0.00,,,0.00,,2013-06-11 10:52:00,
2013-06-11 13:02:00,70.0,60.0,29.90,West,259,14.0,14.0,71,0.00,,,0.00,,2013-06-11 11:02:00,
2013-06-11 13:11:00,70.0,59.0,29.91,NW,315,9.0,10.0,69,0.00,,,0.00,,2013-06-11 11:11:00,
2013-06-11 13:22:00,70.0,59.0,29.91,NW,315,9.0,10.0,69,0.00,,,0.00,,2013-06-11 11:22:00,
2013-06-11 13:32:00,70.0,59.0,29.91,NW,315,9.0,10.0,69,0.00,,,0.00,,2013-06-11 11:32:00,
2013-06-11 13:41:00,70.0,59.0,29.91,NW,315,9.0,10.0,69,0.00,,,0.00,,2013-06-11 11:41:00,
2013-06-11 13:52:00,70.0,59.0,29.91,NW,315,9.0,10.0,69,0.00,,,0.00,,2013-06-11 11:52:00,
2013-06-11 14:01:00,70.0,59.0,29.91,NW,315,9.0,10.0,69,0.00,,,0.00,,2013-06-11 12:01:00,
2013-06-11 14:42:00,71.0,62.0,29.90,WNW,299,3.0,10.0,73,0.00,,,0.00,,2013-06-11 12:42:00,
2013-06-11 14:52:00,71.0,62.0,29.90,WNW,299,3.0,10.0,73,0.00,,,0.00,,2013-06-11 12:52:00,
2013-06-11 15:02:00,70.0,61.0,29.90,SW,221,13.0,13.0,74,0.00,,,0.00,,2013-06-11 13:02:00,
2013-06-11 15:12:00,70.0,61.0,29.90,SW,221,13.0,13.0,74,0.00,,,0.00,,2013-06-11 13:12:00,
2013-06-11 15:22:00,69.0,61.0,29.90,West,261,8.0,18.0,76,0.00,,,0.00,,2013-06-11 13:22:00,
2013-06-11 15:31:00,70.0,63.0,29.89,West,263,3.0,9.0,78,0.00,,,0.00,,2013-06-11 13:31:00,
2013-06-11 15:42:00,70.0,63.0,29.89,West,263,3.0,9.0,78,0.00,,,0.00,,2013-06-11 13:42:00,
2013-06-11 15:52:00,70.0,62.0,29.89,West,268,7.0,17.0,77,0.00,,,0.00,,2013-06-11 13:52:00,
2013-06-11 16:01:00,70.0,62.0,29.88,NW,306,8.0,10.0,77,0.00,,,0.00,,2013-06-11 14:01:00,
2013-06-11 16:11:00,70.0,62.0,29.88,NW,306,8.0,10.0,77,0.00,,,0.00,,2013-06-11 14:11:00,
2013-06-11 16:21:00,70.0,62.0,29.88,NW,323,7.0,7.0,76,0.00,,,0.00,,2013-06-11 14:21:00,
2013-06-11 16:32:00,70.0,62.0,29.88,NW,323,7.0,7.0,76,0.00,,,0.00,,2013-06-11 14:32:00,
2013-06-11 16:41:00,70.0,61.0,29.88,WNW,302,14.0,15.0,73,0.00,,,0.00,,2013-06-11 14:41:00,
2013-06-11 16:52:00,70.0,61.0,29.88,WNW,302,14.0,15.0,73,0.00,,,0.00,,2013-06-11 14:52:00,
2013-06-11 17:02:00,70.0,62.0,29.88,NNW,332,3.0,15.0,75,0.00,,,0.00,,2013-06-11 15:02:00,
2013-06-11 17:12:00,70.0,61.0,29.88,NW,320,8.0,8.0,74,0.00,,,0.00,,2013-06-11 15:12:00,
2013-06-11 17:22:00,70.0,61.0,29.88,NW,320,8.0,8.0,74,0.00,,,0.00,,2013-06-11 15:22:00,
2013-06-11 17:32:00,70.0,61.0,29.88,NW,320,8.0,8.0,74,0.00,,,0.00,,2013-06-11 15:32:00,
2013-06-11 17:42:00,70.0,61.0,29.89,West,277,8.0,10.0,73,0.00,,,0.00,,2013-06-11 15:42:00,
2013-06-11 17:53:00,70.0,61.0,29.89,West,277,8.0,10.0,73,0.00,,,0.00,,2013-06-11 15:53:00,
2013-06-11 18:02:00,70.0,61.0,29.89,West,277,8.0,10.0,73,0.00,,,0.00,,2013-06-11 16:02:00,
2013-06-11 18:12:00,70.0,61.0,29.89,West,277,8.0,10.0,73,0.00,,,0.00,,2013-06-11 16:12:00,
2013-06-11 18:22:00,69.0,60.0,29.90,NW,320,4.0,12.0,73,0.00,,,0.00,,2013-06-11 16:22:00,
2013-06-11 18:32:00,69.0,60.0,29.89,West,270,10.0,14.0,74,0.00,,,0.00,,2013-06-11 16:32:00,
2013-06-11 18:42:00,67.0,62.0,29.89,WNW,290,7.0,7.0,83,0.02,,,0.02,,2013-06-11 16:42:00,
2013-06-11 18:52:00,67.0,62.0,29.89,WNW,290,7.0,7.0,83,0.02,,,0.02,,2013-06-11 16:52:00,
2013-06-11 19:02:00,66.0,61.0,29.89,NW,316,3.0,6.0,85,0.02,,,0.02,,2013-06-11 17:02:00,
2013-06-11 19:12:00,66.0,61.0,29.89,NW,316,3.0,6.0,85,0.02,,,0.02,,2013-06-11 17:12:00,
2013-06-11 19:22:00,66.0,62.0,29.89,NW,305,7.0,7.0,86,0.02,,,0.02,,2013-06-11 17:22:00,
2013-06-11 19:32:00,66.0,62.0,29.89,NW,305,7.0,7.0,86,0.02,,,0.02,,2013-06-11 17:32:00,
2013-06-11 19:42:00,67.0,63.0,29.89,West,268,10.0,10.0,88,0.00,,,0.02,,2013-06-11 17:42:00,
2013-06-11 19:52:00,67.0,63.0,29.89,West,268,10.0,10.0,88,0.00,,,0.02,,2013-06-11 17:52:00,
2013-06-11 20:02:00,67.0,63.0,29.89,West,268,10.0,10.0,88,0.00,,,0.02,,2013-06-11 18:02:00,
2013-06-11 20:12:00,67.0,63.0,29.89,West,268,10.0,10.0,88,0.00,,,0.02,,2013-06-11 18:12:00,
2013-06-11 20:22:00,67.0,64.0,29.90,NW,323,4.0,5.0,89,0.00,,,0.02,,2013-06-11 18:22:00,
2013-06-11 20:32:00,67.0,64.0,29.90,NW,323,4.0,5.0,89,0.00,,,0.02,,2013-06-11 18:32:00,
2013-06-11 20:43:00,66.0,63.0,29.91,North,350,6.0,6.0,90,0.00,,,0.02,,2013-06-11 18:43:00,
2013-06-11 20:52:00,66.0,63.0,29.91,North,350,6.0,6.0,90,0.00,,,0.02,,2013-06-11 18:52:00,
2013-06-11 21:01:00,66.0,63.0,29.90,NW,309,3.0,6.0,90,0.00,,,0.02,,2013-06-11 19:01:00,
2013-06-11 21:12:00,66.0,63.0,29.90,NW,309,3.0,6.0,90,0.00,,,0.02,,2013-06-11 19:12:00,
2013-06-11 21:22:00,66.0,63.0,29.91,North,349,4.0,8.0,91,0.00,,,0.02,,2013-06-11 19:22:00,
2013-06-11 21:32:00,66.0,63.0,29.91,NW,305,6.0,9.0,91,0.00,,,0.02,,2013-06-11 19:32:00,
2013-06-11 21:41:00,66.0,63.0,29.91,NW,306,4.0,4.0,91,0.00,,,0.02,,2013-06-11 19:41:00,
2013-06-11 21:52:00,66.0,63.0,29.91,NW,306,4.0,4.0,91,0.00,,,0.02,,2013-06-11 19:52:00,
2013-06-11 22:01:00,66.0,63.0,29.91,West,280,4.0,4.0,91,0.00,,,0.02,,2013-06-11 20:01:00,
2013-06-11 22:11:00,66.0,63.0,29.91,West,280,4.0,4.0,91,0.00,,,0.02,,2013-06-11 20:11:00,
2013-06-11 22:21:00,66.0,63.0,29.91,WNW,302,1.0,8.0,91,0.00,,,0.02,,2013-06-11 20:21:00,
2013-06-11 22:32:00,66.0,63.0,29.92,WNW,302,4.0,4.0,91,0.00,,,0.02,,2013-06-11 20:32:00,
2013-06-11 22:42:00,66.0,63.0,29.92,WNW,302,4.0,4.0,91,0.00,,,0.02,,2013-06-11 20:42:00,
2013-06-11 22:52:00,66.0,63.0,29.92,NW,310,4.0,7.0,91,0.00,,,0.02,,2013-06-11 20:52:00,
2013-06-11 23:01:00,66.0,63.0,29.92,NNW,347,3.0,5.0,91,0.00,,,0.02,,2013-06-11 21:01:00,
2013-06-11 23:22:00,66.0,63.0,29.92,NNW,330,3.0,3.0,91,0.00,,,0.02,,2013-06-11 21:22:00,
2013-06-11 23:32:00,66.0,63.0,29.92,NNE,14,3.0,3.0,91,0.00,,,0.02,,2013-06-11 21:32:00,
2013-06-11 23:42:00,65.0,62.0,29.92,NNE,15,0.0,0.0,91,0.00,,,0.02,,2013-06-11 21:42:00,
2013-06-11 23:52:00,65.0,62.0,29.92,NNE,15,0.0,0.0,91,0.00,,,0.02,,2013-06-11 21:52:00,